createdAt,value
2018-04-11T00:02:50.053Z,58.30
2018-04-11T00:07:54.302Z,58.50
2018-04-11T00:12:57.082Z,58.70
2018-04-11T00:17:59.628Z,59.10
2018-04-11T00:23:02.198Z,59.10
2018-04-11T00:28:04.770Z,58.60
2018-04-11T00:33:07.339Z,59.00
2018-04-11T00:38:10.354Z,59.70
2018-04-11T00:43:25.707Z,59.70
2018-04-11T00:48:28.429Z,59.80
2018-04-11T00:53:30.979Z,59.70
2018-04-11T00:58:33.568Z,59.70
2018-04-11T01:03:36.741Z,60.90
2018-04-11T01:08:59.020Z,60.60
2018-04-11T01:14:01.706Z,60.00
2018-04-11T01:19:04.921Z,60.30
2018-04-11T01:24:10.087Z,60.90
2018-04-11T01:29:12.647Z,59.70
2018-04-11T01:34:15.218Z,59.50
2018-04-11T01:39:17.781Z,59.60
2018-04-11T01:44:20.348Z,61.40
2018-04-11T01:49:23.104Z,61.50
2018-04-11T01:54:25.672Z,61.60
2018-04-11T01:59:28.694Z,61.80
2018-04-11T02:04:31.261Z,61.60
2018-04-11T02:09:34.550Z,61.60
2018-04-11T02:14:37.085Z,61.90
2018-04-11T02:19:41.272Z,61.80
2018-04-11T02:24:44.097Z,61.70
2018-04-11T02:29:47.258Z,62.00
2018-04-11T02:34:49.844Z,61.40
2018-04-11T02:39:52.400Z,61.80
2018-04-11T02:44:55.031Z,61.90
2018-04-11T02:49:57.564Z,61.80
2018-04-11T02:55:00.127Z,64.20
2018-04-11T03:00:02.718Z,66.00
2018-04-11T03:05:05.295Z,64.60
2018-04-11T03:10:07.845Z,63.00
2018-04-11T03:15:10.653Z,63.80
2018-04-11T03:20:15.048Z,64.30
2018-04-11T03:30:27.911Z,63.20
2018-04-11T03:35:30.769Z,63.70
2018-04-11T03:40:33.786Z,64.10
2018-04-11T03:45:42.697Z,64.60
2018-04-11T03:50:45.921Z,64.80
2018-04-11T03:55:48.478Z,65.00
2018-04-11T04:00:51.777Z,64.70
2018-04-11T04:06:00.412Z,63.40
2018-04-11T04:11:03.248Z,63.70
2018-04-11T04:16:17.461Z,63.70
2018-04-11T04:21:20.009Z,64.00
2018-04-11T04:26:22.594Z,64.80
2018-04-11T04:31:27.998Z,64.80
2018-04-11T04:36:30.659Z,64.20
2018-04-11T04:41:33.243Z,64.90
2018-04-11T04:46:35.842Z,64.80
2018-04-11T04:51:39.229Z,63.90
2018-04-11T04:56:41.798Z,63.50
2018-04-11T05:01:44.617Z,64.70
2018-04-11T05:06:47.177Z,64.80
2018-04-11T05:11:49.744Z,63.80
2018-04-11T05:16:53.091Z,63.00
2018-04-11T05:21:55.652Z,63.50
2018-04-11T05:26:58.203Z,63.90
2018-04-11T05:32:00.821Z,72.00
2018-04-11T05:37:03.500Z,57.80
2018-04-11T05:42:06.075Z,52.90
2018-04-11T05:47:12.457Z,56.50
2018-04-11T05:52:15.011Z,59.30
2018-04-11T05:57:18.220Z,61.30
2018-04-11T06:02:23.452Z,63.50
2018-04-11T06:07:26.037Z,65.70
2018-04-11T06:12:28.590Z,66.40
2018-04-11T06:17:31.808Z,68.50
2018-04-11T06:22:36.908Z,70.40
2018-04-11T06:27:39.536Z,71.70
2018-04-11T06:32:42.120Z,71.90
2018-04-11T06:37:45.852Z,71.70
2018-04-11T06:42:48.412Z,70.30
2018-04-11T06:47:51.396Z,69.70
2018-04-11T06:52:54.800Z,68.60
2018-04-11T06:57:58.280Z,66.90
2018-04-11T07:03:03.448Z,66.60
2018-04-11T07:08:06.009Z,66.00
2018-04-11T07:13:11.068Z,65.20
2018-04-11T07:18:13.938Z,65.90
2018-04-11T07:23:16.941Z,66.70
2018-04-11T07:28:19.537Z,66.10
2018-04-11T07:33:23.386Z,64.20
2018-04-11T07:38:26.496Z,62.80
2018-04-11T07:43:29.061Z,61.90
2018-04-11T07:48:33.311Z,61.30
2018-04-11T07:53:35.882Z,61.10
2018-04-11T07:58:39.065Z,60.40
2018-04-11T08:03:41.701Z,59.50
2018-04-11T08:08:44.730Z,59.30
2018-04-11T08:13:47.299Z,58.60
2018-04-11T08:18:49.879Z,58.20
2018-04-11T08:23:51.957Z,57.50
2018-04-11T08:28:54.545Z,53.00
2018-04-11T08:33:59.716Z,42.60
2018-04-11T08:39:02.289Z,35.50
2018-04-11T08:44:05.124Z,31.10
2018-04-11T08:49:07.702Z,32.40
2018-04-11T08:54:10.297Z,34.90
2018-04-11T08:59:12.852Z,37.70
2018-04-11T09:04:15.421Z,42.30
2018-04-11T09:09:17.995Z,44.90
2018-04-11T09:14:20.562Z,46.60
2018-04-11T09:19:23.218Z,49.00
2018-04-11T09:24:25.926Z,49.00
2018-04-11T09:29:28.481Z,48.00
2018-04-11T09:34:31.081Z,48.60
2018-04-11T09:39:33.655Z,48.10
2018-04-11T09:44:36.235Z,48.00
2018-04-11T09:49:38.808Z,47.60
2018-04-11T09:54:41.388Z,47.20
2018-04-11T09:59:43.949Z,46.60
2018-04-11T10:04:47.068Z,46.50
2018-04-11T10:09:49.631Z,45.10
2018-04-11T10:14:52.211Z,44.50
2018-04-11T10:19:54.781Z,45.00
2018-04-11T10:24:57.493Z,43.90
2018-04-11T10:30:00.792Z,43.00
2018-04-11T10:35:04.066Z,43.20
2018-04-11T10:40:07.296Z,41.60
2018-04-11T10:45:10.605Z,41.20
2018-04-11T10:50:13.160Z,40.70
2018-04-11T10:55:15.737Z,40.10
2018-04-11T11:00:19.029Z,38.30
2018-04-11T11:05:21.631Z,38.80
2018-04-11T11:10:24.847Z,37.50
2018-04-11T11:15:28.064Z,35.70
2018-04-11T11:20:30.635Z,34.10
2018-04-11T11:25:33.192Z,33.60
2018-04-11T11:30:36.200Z,32.70
2018-04-11T11:35:38.761Z,32.70
2018-04-11T11:40:41.649Z,31.40
2018-04-11T11:45:44.346Z,30.40
2018-04-11T11:50:47.217Z,30.10
2018-04-11T11:55:49.785Z,28.80
2018-04-11T12:00:52.983Z,28.60
2018-04-11T12:05:55.555Z,25.30
2018-04-11T12:11:00.826Z,25.60
2018-04-11T12:16:04.210Z,25.50
2018-04-11T12:21:07.469Z,24.50
2018-04-11T12:26:10.029Z,24.30
2018-04-11T12:31:13.018Z,26.00
2018-04-11T12:36:15.601Z,23.70
2018-04-11T12:41:18.163Z,21.60
2018-04-11T12:46:20.736Z,21.80
2018-04-11T12:51:23.570Z,21.70
2018-04-11T12:56:26.152Z,20.70
2018-04-11T13:01:29.367Z,21.20
2018-04-11T13:06:32.453Z,21.20
2018-04-11T13:11:35.280Z,20.50
2018-04-11T13:16:37.841Z,21.30
2018-04-11T13:21:41.723Z,19.50
2018-04-11T13:26:44.300Z,20.30
2018-04-11T13:31:47.464Z,19.30
2018-04-11T13:36:50.033Z,20.00
2018-04-11T13:41:52.781Z,18.70
2018-04-11T13:46:56.015Z,17.70
2018-04-11T13:51:58.576Z,17.70
2018-04-11T13:57:01.155Z,18.50
2018-04-11T14:02:04.214Z,18.50
2018-04-11T14:07:06.787Z,18.50
2018-04-11T14:12:09.584Z,17.90
2018-04-11T14:17:12.147Z,18.10
2018-04-11T14:22:15.004Z,17.20
2018-04-11T14:27:18.257Z,16.70
2018-04-11T14:32:20.826Z,17.40
2018-04-11T14:37:23.386Z,17.20
2018-04-11T14:42:25.960Z,17.40
2018-04-11T14:47:31.008Z,17.80
2018-04-11T14:52:33.837Z,17.60
2018-04-11T14:57:36.404Z,17.90
2018-04-11T15:02:39.249Z,18.50
2018-04-11T15:07:44.268Z,19.10
2018-04-11T15:12:46.872Z,19.40
2018-04-11T15:17:51.005Z,18.90
2018-04-11T15:22:53.589Z,18.60
2018-04-11T15:27:56.157Z,18.10
2018-04-11T15:32:58.952Z,17.70
2018-04-11T15:38:01.517Z,18.00
2018-04-11T15:43:04.094Z,17.90
2018-04-11T15:48:06.673Z,17.70
2018-04-11T15:53:09.241Z,18.60
2018-04-11T15:58:12.387Z,18.90
2018-04-11T16:03:14.964Z,19.20
2018-04-11T16:08:17.841Z,19.80
2018-04-11T16:13:27.076Z,19.50
2018-04-11T16:18:29.661Z,18.80
2018-04-11T16:23:34.948Z,19.40
2018-04-11T16:28:47.012Z,20.40
2018-04-11T16:33:50.156Z,21.10
2018-04-11T16:38:53.100Z,21.30
2018-04-11T16:44:02.252Z,21.10
2018-04-11T16:49:05.134Z,21.10
2018-04-11T16:54:08.040Z,21.30
2018-04-11T16:59:10.909Z,21.80
2018-04-11T17:04:14.060Z,21.90
2018-04-11T17:09:16.628Z,22.30
2018-04-11T17:14:19.233Z,22.30
2018-04-11T17:19:21.801Z,22.90
2018-04-11T17:24:36.242Z,23.50
2018-04-11T17:29:50.362Z,24.00
2018-04-11T17:34:52.931Z,25.10
2018-04-11T17:39:56.189Z,29.10
2018-04-11T17:44:58.732Z,30.50
2018-04-11T17:50:01.307Z,31.80
2018-04-11T17:55:04.482Z,33.00
2018-04-11T18:00:07.349Z,33.70
2018-04-11T18:05:09.904Z,34.50
2018-04-11T18:10:12.467Z,35.20
2018-04-11T18:15:17.620Z,35.90
2018-04-11T18:20:21.998Z,36.40
2018-04-11T18:25:25.165Z,37.10
2018-04-11T18:30:27.966Z,37.40
2018-04-11T18:35:31.053Z,37.60
2018-04-11T18:40:33.643Z,38.10
2018-04-11T18:45:37.317Z,38.60
2018-04-11T18:50:39.898Z,39.00
2018-04-11T18:55:42.486Z,39.20
2018-04-11T19:00:45.053Z,39.30
2018-04-11T19:05:47.633Z,39.60
2018-04-11T19:10:50.444Z,39.90
2018-04-11T19:15:53.480Z,40.30
2018-04-11T19:20:56.186Z,40.50
2018-04-11T19:25:59.572Z,40.70
2018-04-11T19:31:02.166Z,40.90
2018-04-11T19:36:06.080Z,40.80
2018-04-11T19:41:09.280Z,40.40
2018-04-11T19:46:12.110Z,40.40
2018-04-11T19:51:14.819Z,40.00
2018-04-11T19:56:17.928Z,40.10
2018-04-11T20:01:20.485Z,40.30
2018-04-11T20:06:29.831Z,40.70
2018-04-11T20:11:52.840Z,41.10
2018-04-11T20:16:55.408Z,41.40
2018-04-11T20:21:57.968Z,41.10
2018-04-11T20:27:00.520Z,41.10
2018-04-11T20:32:03.077Z,41.30
2018-04-11T20:37:05.909Z,41.50
2018-04-11T20:42:08.480Z,41.60
2018-04-11T20:47:11.031Z,41.80
2018-04-11T20:52:13.609Z,41.90
2018-04-11T20:57:16.172Z,42.30
2018-04-11T21:02:19.505Z,42.40
2018-04-11T21:07:22.064Z,42.60
2018-04-11T21:12:24.640Z,43.40
2018-04-11T21:17:27.205Z,43.50
2018-04-11T21:22:29.778Z,43.40
2018-04-11T21:27:32.385Z,43.30
2018-04-11T21:32:36.376Z,43.80
2018-04-11T21:37:38.940Z,43.90
2018-04-11T21:42:41.529Z,44.00
2018-04-11T21:47:45.367Z,44.10
2018-04-11T21:52:49.713Z,44.70
2018-04-11T21:57:52.273Z,44.90
2018-04-11T22:02:55.283Z,45.30
2018-04-11T22:07:57.861Z,45.60
2018-04-11T22:13:00.424Z,46.40
2018-04-11T22:18:03.005Z,46.90
2018-04-11T22:23:05.571Z,47.10
2018-04-11T22:28:08.250Z,47.40
2018-04-11T22:33:10.818Z,47.00
2018-04-11T22:38:13.920Z,46.90
2018-04-11T22:43:16.500Z,47.10
2018-04-11T22:48:19.128Z,47.20
2018-04-11T22:53:21.897Z,47.50
2018-04-11T22:58:25.024Z,47.80
2018-04-11T23:03:27.612Z,48.40
2018-04-11T23:08:30.203Z,48.00
2018-04-11T23:13:33.050Z,48.10
2018-04-11T23:18:35.631Z,48.40
2018-04-11T23:23:42.297Z,48.80
2018-04-11T23:28:44.891Z,48.80
2018-04-11T23:33:47.472Z,49.10
2018-04-11T23:38:50.308Z,47.80
2018-04-11T23:43:54.032Z,45.60
2018-04-11T23:54:06.443Z,43.10
2018-04-11T23:59:09.028Z,42.50
